Time;durP1;ratioP1;P1;durP2;ratioP2;P2;SDS_P1;SDS_P2;PMS_P1;PMS_P2;Temp;Humidity;BMP_temperature;BMP_pressure;BME280_temperature;BME280_humidity;BME280_pressure;Samples;Min_cycle;Max_cycle;Signal;HPM_P1;HPM_P2
2023/09/27 00:00:19;;;;;;;;;;;;;;;28.62;66.11;100688.72;5016012;28;70208;-36
2023/09/27 00:02:49;;;;;;;;;;;;;;;28.65;66.00;100688.28;5019117;28;65961;-37
2023/09/27 00:05:20;;;;;;;;;;;;;;;28.67;66.54;100702.41;4998351;28;70438;-36
2023/09/27 00:07:54;;;;;;;;;;;;;;;28.63;66.39;100696.56;5014672;28;66395;-37
2023/09/27 00:10:24;;;;;;;;;;;;;;;28.72;66.70;100710.69;5014600;28;69435;-37
2023/09/27 00:12:54;;;;;;;;;;;;;;;28.75;67.48;100710.25;5015115;28;66173;-37
2023/09/27 00:15:24;;;;;;;;;;;;;;;28.78;67.89;100719.81;5014000;28;70331;-36
2023/09/27 00:17:54;;;;;;;;;;;;;;;28.79;68.67;100716.91;5017002;28;65911;-39
2023/09/27 00:20:24;;;;;;;;;;;;;;;28.83;69.14;100723.53;5017257;28;70668;-37
2023/09/27 00:22:55;;;;;;;;;;;;;;;28.85;70.42;100728.75;5016731;28;66648;-42
2023/09/27 00:25:25;;;;;;;;;;;;;;;28.86;68.11;100736.66;5017705;28;69812;-37
2023/09/27 00:27:55;;;;;;;;;;;;;;;28.89;68.64;100736.22;5020831;28;66354;-38
2023/09/27 00:30:25;;;;;;;;;;;;;;;28.91;69.45;100736.81;5007071;28;69164;-38
2023/09/27 00:32:55;;;;;;;;;;;;;;;28.91;71.35;100739.50;5011870;28;67586;-37
2023/09/27 00:35:26;;;;;;;;;;;;;;;28.93;71.07;100748.25;5000946;28;70686;-38
2023/09/27 00:37:58;;;;;;;;;;;;;;;29.02;77.81;100758.81;5022511;28;67169;-37
2023/09/27 00:40:28;;;;;;;;;;;;;;;29.06;77.63;100758.22;5000419;28;70062;-37
2023/09/27 00:42:58;;;;;;;;;;;;;;;29.09;77.47;100759.69;5031979;28;65528;-36
2023/09/27 00:45:27;;;;;;;;;;;;;;;29.12;77.41;100759.25;5018355;28;71132;-37
2023/09/27 00:47:57;;;;;;;;;;;;;;;29.06;75.83;100757.38;5019454;28;66264;-36
2023/09/27 00:50:28;;;;;;;;;;;;;;;29.05;74.66;100763.84;4998180;28;69881;-37
2023/09/27 00:52:58;;;;;;;;;;;;;;;29.07;73.60;100769.88;5000088;28;66916;-37
2023/09/27 00:55:29;;;;;;;;;;;;;;;29.10;72.59;100761.34;4997091;28;69447;-37
2023/09/27 00:58:00;;;;;;;;;;;;;;;29.12;72.24;100775.47;4989770;28;65430;-37
2023/09/27 01:00:30;;;;;;;;;;;;;;;29.12;71.71;100770.88;4997379;28;70262;-38
2023/09/27 01:03:00;;;;;;;;;;;;;;;29.18;70.91;100774.63;4984818;28;65946;-37
2023/09/27 01:05:30;;;;;;;;;;;;;;;29.19;70.84;100776.25;5008949;28;70763;-36
2023/09/27 01:08:00;;;;;;;;;;;;;;;29.21;70.48;100776.91;4981900;28;65282;-37
2023/09/27 01:10:33;;;;;;;;;;;;;;;29.22;70.49;100783.94;4996073;28;69813;-38
2023/09/27 01:13:03;;;;;;;;;;;;;;;29.24;70.54;100789.97;4992731;28;65524;-36
2023/09/27 01:15:33;;;;;;;;;;;;;;;29.26;69.86;100793.31;4985518;28;70493;-37
2023/09/27 01:18:03;;;;;;;;;;;;;;;29.28;70.03;100790.38;4994310;28;66212;-38
2023/09/27 01:20:33;;;;;;;;;;;;;;;29.30;69.83;100799.94;4991226;28;69825;-37
2023/09/27 01:23:07;;;;;;;;;;;;;;;29.31;69.56;100796.19;4990282;28;64403;-39
2023/09/27 01:25:38;;;;;;;;;;;;;;;29.33;69.34;100794.09;4988765;28;70277;-37
2023/09/27 01:28:09;;;;;;;;;;;;;;;29.35;69.39;100792.03;4993220;28;66699;-36
2023/09/27 01:30:39;;;;;;;;;;;;;;;29.36;69.86;100793.69;4991468;28;69937;-39
2023/09/27 01:33:10;;;;;;;;;;;;;;;29.38;69.13;100791.59;4986494;28;65490;-38
2023/09/27 01:35:41;;;;;;;;;;;;;;;29.40;69.48;100794.91;4996319;28;69711;-38
2023/09/27 01:38:12;;;;;;;;;;;;;;;29.42;69.44;100796.56;4987051;28;67137;-36
2023/09/27 01:40:42;;;;;;;;;;;;;;;29.44;69.24;100798.03;4988531;28;70320;-37
2023/09/27 01:43:12;;;;;;;;;;;;;;;29.46;69.01;100804.06;4995328;28;68013;-36
2023/09/27 01:45:42;;;;;;;;;;;;;;;29.48;69.03;100809.25;4983694;28;70297;-37
2023/09/27 01:48:12;;;;;;;;;;;;;;;29.38;69.37;100791.59;4996138;28;66239;-38
2023/09/27 01:50:43;;;;;;;;;;;;;;;29.53;68.69;100825.63;5006319;28;69232;-37
2023/09/27 01:53:13;;;;;;;;;;;;;;;29.54;69.26;100820.03;4987950;28;66339;-38
2023/09/27 01:55:42;;;;;;;;;;;;;;;29.57;68.70;100826.88;5004065;28;70374;-38
2023/09/27 01:58:12;;;;;;;;;;;;;;;29.59;69.09;100822.09;5005021;28;67070;-37
2023/09/27 02:00:43;;;;;;;;;;;;;;;29.61;69.08;100822.69;5003639;28;69739;-37
2023/09/27 02:03:13;;;;;;;;;;;;;;;29.64;68.72;100816.06;5010041;28;66398;-39
2023/09/27 02:05:43;;;;;;;;;;;;;;;29.66;68.34;100814.00;5005623;28;70050;-37
2023/09/27 02:08:13;;;;;;;;;;;;;;;29.68;69.07;100818.16;5006401;28;66218;-37
2023/09/27 02:10:43;;;;;;;;;;;;;;;29.70;68.32;100817.91;5008348;28;70219;-37
2023/09/27 02:13:12;;;;;;;;;;;;;;;29.72;68.49;100822.06;5008860;28;66712;-38
2023/09/27 02:15:42;;;;;;;;;;;;;;;29.74;68.25;100816.47;5008782;28;69913;-38
2023/09/27 02:18:13;;;;;;;;;;;;;;;29.76;68.89;100815.22;5006887;28;65783;-38
2023/09/27 02:20:43;;;;;;;;;;;;;;;29.78;68.42;100817.69;5011169;28;70464;-37
2023/09/27 02:23:13;;;;;;;;;;;;;;;29.80;68.16;100821.84;5009220;28;66421;-38
2023/09/27 02:25:43;;;;;;;;;;;;;;;29.81;68.29;100818.09;4993709;28;70248;-38
2023/09/27 02:28:13;;;;;;;;;;;;;;;29.83;68.84;100821.41;5008799;28;66659;-38
2023/09/27 02:30:43;;;;;;;;;;;;;;;29.87;68.63;100805.59;5015150;28;70765;-39
2023/09/27 02:33:13;;;;;;;;;;;;;;;29.89;68.59;100808.06;4996175;28;65984;-37
2023/09/27 02:35:43;;;;;;;;;;;;;;;29.91;68.56;100806.81;5012965;28;70985;-36
2023/09/27 02:38:14;;;;;;;;;;;;;;;29.93;68.12;100812.03;5009311;28;65999;-38
2023/09/27 02:40:43;;;;;;;;;;;;;;;29.95;68.66;100801.78;5008149;28;70358;-38
2023/09/27 02:43:13;;;;;;;;;;;;;;;29.97;68.32;100800.53;5017064;28;66280;-39
2023/09/27 02:45:45;;;;;;;;;;;;;;;30.00;68.50;100805.50;5016372;28;69827;-37
2023/09/27 02:48:15;;;;;;;;;;;;;;;30.03;68.45;100813.22;5007689;28;65610;-37
2023/09/27 02:50:49;;;;;;;;;;;;;;;30.06;68.00;100803.81;4990566;28;69550;-37
2023/09/27 02:53:19;;;;;;;;;;;;;;;30.08;68.00;100800.91;5013169;28;65314;-37
2023/09/27 02:55:49;;;;;;;;;;;;;;;30.11;67.85;100805.88;5019233;28;69806;-38
2023/09/27 02:58:19;;;;;;;;;;;;;;;30.13;68.03;100799.22;5019504;28;66281;-38
2023/09/27 03:00:49;;;;;;;;;;;;;;;30.15;67.81;100790.88;5020046;28;70606;-38
2023/09/27 03:03:19;;;;;;;;;;;;;;;30.18;67.98;100780.44;5011065;28;66340;-38
2023/09/27 03:05:49;;;;;;;;;;;;;;;30.22;67.76;100781.69;4992088;28;69330;-38
2023/09/27 03:08:19;;;;;;;;;;;;;;;30.23;68.09;100783.38;5014653;28;65199;-37
2023/09/27 03:10:49;;;;;;;;;;;;;;;30.26;68.24;100780.22;5013456;28;70177;-38
2023/09/27 03:13:20;;;;;;;;;;;;;;;30.29;67.90;100778.97;5016124;28;66888;-38
2023/09/27 03:15:56;;;;;;;;;;;;;;;30.19;68.02;100755.03;5025470;28;69961;-37
2023/09/27 03:18:26;;;;;;;;;;;;;;;30.34;68.04;100772.88;5013726;28;66246;-36
2023/09/27 03:20:56;;;;;;;;;;;;;;;30.37;67.89;100764.31;5012269;28;70505;-38
2023/09/27 03:23:27;;;;;;;;;;;;;;;30.40;68.11;100761.19;5018698;28;66065;-37
2023/09/27 03:25:57;;;;;;;;;;;;;;;30.43;68.11;100760.75;5027913;28;70838;-37
2023/09/27 03:28:27;;;;;;;;;;;;;;;30.46;67.89;100752.19;5015355;28;66141;-36
2023/09/27 03:30:56;;;;;;;;;;;;;;;30.50;67.97;100758.81;5003784;28;70323;-37
2023/09/27 03:33:27;;;;;;;;;;;;;;;30.52;68.02;100754.00;5013681;28;66471;-37
2023/09/27 03:35:57;;;;;;;;;;;;;;;30.56;67.59;100754.38;5003921;28;69669;-38
2023/09/27 03:38:27;;;;;;;;;;;;;;;30.58;67.41;100750.41;5017511;28;66405;-38
2023/09/27 03:40:57;;;;;;;;;;;;;;;30.62;67.46;100745.38;5017646;28;70530;-37
2023/09/27 03:43:27;;;;;;;;;;;;;;;30.64;67.83;100746.81;5010139;28;66601;-38
2023/09/27 03:46:01;;;;;;;;;;;;;;;30.67;67.58;100730.16;5003187;28;70362;-37
2023/09/27 03:48:32;;;;;;;;;;;;;;;30.69;67.17;100730.72;5016931;28;66619;-37
2023/09/27 03:51:02;;;;;;;;;;;;;;;30.73;67.27;100739.25;5021306;28;69912;-38
2023/09/27 03:53:32;;;;;;;;;;;;;;;30.75;67.62;100731.72;5006150;28;65752;-39
2023/09/27 03:56:02;;;;;;;;;;;;;;;30.77;67.71;100728.78;4977533;28;69753;-46
2023/09/27 03:58:32;;;;;;;;;;;;;;;30.80;67.50;100728.38;5003621;28;65153;-37
2023/09/27 04:01:03;;;;;;;;;;;;;;;30.82;67.39;100737.13;5014402;28;70005;-37
2023/09/27 04:03:33;;;;;;;;;;;;;;;30.84;67.41;100729.56;5012721;28;66139;-37
2023/09/27 04:06:03;;;;;;;;;;;;;;;30.87;67.53;100724.56;5014154;28;69852;-38
2023/09/27 04:08:34;;;;;;;;;;;;;;;30.89;67.14;100721.59;4997919;28;66869;-37
2023/09/27 04:11:06;;;;;;;;;;;;;;;30.91;67.10;100720.34;5021304;28;70495;-37
2023/09/27 04:13:36;;;;;;;;;;;;;;;30.94;67.39;100713.66;5020343;28;66708;-39
2023/09/27 04:16:06;;;;;;;;;;;;;;;30.96;67.02;100716.97;5021921;28;70165;-37
2023/09/27 04:18:36;;;;;;;;;;;;;;;30.99;67.23;100713.81;5015119;28;66313;-38
2023/09/27 04:21:07;;;;;;;;;;;;;;;31.01;66.99;100714.41;5022716;28;69709;-37
2023/09/27 04:23:37;;;;;;;;;;;;;;;31.01;67.48;100733.38;5013994;28;67001;-39
2023/09/27 04:26:09;;;;;;;;;;;;;;;31.04;66.89;100768.13;5012691;28;70479;-37
2023/09/27 04:28:39;;;;;;;;;;;;;;;31.06;67.21;100767.91;5012554;28;65459;-37
2023/09/27 04:31:09;;;;;;;;;;;;;;;31.07;67.16;100778.53;4998645;28;70107;-39
2023/09/27 04:33:41;;;;;;;;;;;;;;;31.08;67.31;100782.06;5015391;28;66712;-37
2023/09/27 04:36:15;;;;;;;;;;;;;;;31.07;67.29;100789.38;5017153;28;70298;-37
2023/09/27 04:38:45;;;;;;;;;;;;;;;31.07;68.19;100789.38;5017563;28;66589;-38
2023/09/27 04:41:17;;;;;;;;;;;;;;;31.06;68.36;100790.41;5017473;28;70345;-38
2023/09/27 04:43:47;;;;;;;;;;;;;;;31.05;68.28;100772.50;5017222;28;66324;-37
2023/09/27 04:46:18;;;;;;;;;;;;;;;31.05;68.66;100769.78;5018617;28;69362;-37
2023/09/27 04:48:48;;;;;;;;;;;;;;;31.05;68.71;100769.78;5010339;28;65330;-38
2023/09/27 04:51:18;;;;;;;;;;;;;;;31.05;68.33;100768.97;5020155;28;70618;-38
2023/09/27 04:53:48;;;;;;;;;;;;;;;31.05;68.45;100768.97;5015550;28;66163;-37
2023/09/27 04:56:18;;;;;;;;;;;;;;;31.04;68.38;100767.31;5007239;28;70784;-37
2023/09/27 04:58:47;;;;;;;;;;;;;;;31.03;68.27;100761.03;5018569;28;66284;-37
2023/09/27 05:01:18;;;;;;;;;;;;;;;31.02;68.56;100753.97;5018025;28;70493;-37
2023/09/27 05:03:48;;;;;;;;;;;;;;;31.00;68.39;100739.81;5019287;28;66707;-37
2023/09/27 05:06:18;;;;;;;;;;;;;;;31.00;68.40;100733.59;5020089;28;70118;-36
2023/09/27 05:08:49;;;;;;;;;;;;;;;30.97;68.31;100729.44;5019718;28;66638;-37
2023/09/27 05:11:20;;;;;;;;;;;;;;;30.96;68.21;100722.38;5016853;28;70034;-38
2023/09/27 05:13:50;;;;;;;;;;;;;;;30.94;68.03;100714.47;5012320;28;66007;-36
2023/09/27 05:16:20;;;;;;;;;;;;;;;30.93;68.64;100712.00;5009384;28;70368;-38
2023/09/27 05:18:50;;;;;;;;;;;;;;;30.91;68.17;100709.50;5010131;28;65444;-38
2023/09/27 05:21:20;;;;;;;;;;;;;;;30.90;68.30;100690.78;5011644;28;69540;-36
2023/09/27 05:23:50;;;;;;;;;;;;;;;30.87;68.52;100686.63;5011668;28;66132;-37
2023/09/27 05:26:20;;;;;;;;;;;;;;;30.86;68.26;100682.25;5009791;28;70402;-36
2023/09/27 05:28:50;;;;;;;;;;;;;;;30.84;68.24;100675.41;5009268;28;65265;-39
2023/09/27 05:31:21;;;;;;;;;;;;;;;30.82;68.26;100672.13;5012271;28;70145;-36
2023/09/27 05:33:53;;;;;;;;;;;;;;;30.80;68.49;100666.09;5012603;28;66489;-37
2023/09/27 05:36:23;;;;;;;;;;;;;;;30.78;68.29;100660.84;5016134;28;70385;-39
2023/09/27 05:38:53;;;;;;;;;;;;;;;30.78;67.89;100660.84;5011233;28;66082;-37
2023/09/27 05:41:36;;;;;;;;;;;;;;;30.77;67.98;100663.81;5021229;28;70339;-37
2023/09/27 05:44:06;;;;;;;;;;;;;;;30.75;68.12;100660.50;5010816;28;66277;-37
2023/09/27 05:46:36;;;;;;;;;;;;;;;30.74;68.41;100665.09;5019991;28;69568;-38
2023/09/27 05:49:09;;;;;;;;;;;;;;;30.73;68.36;100664.25;5013133;28;66064;-37
2023/09/27 05:51:39;;;;;;;;;;;;;;;30.71;68.57;100655.53;5020247;28;70507;-37
2023/09/27 05:54:10;;;;;;;;;;;;;;;30.71;68.27;100652.81;5014606;28;65985;-37
2023/09/27 05:56:43;;;;;;;;;;;;;;;30.70;68.53;100658.44;5022346;28;70869;-36
2023/09/27 05:59:15;;;;;;;;;;;;;;;30.69;68.34;100640.56;5023481;28;66007;-36
2023/09/27 06:01:47;;;;;;;;;;;;;;;30.69;68.29;100637.84;5022942;28;69498;-36
2023/09/27 06:04:17;;;;;;;;;;;;;;;30.68;68.63;100630.78;5029458;28;67195;-37
2023/09/27 06:06:48;;;;;;;;;;;;;;;30.67;68.30;100627.25;5020226;28;70390;-36
2023/09/27 06:09:18;;;;;;;;;;;;;;;30.66;68.62;100617.47;5023136;28;66336;-36
2023/09/27 06:11:47;;;;;;;;;;;;;;;30.65;68.47;100621.22;4998312;28;70032;-35
2023/09/27 06:14:18;;;;;;;;;;;;;;;30.65;68.80;100613.09;5026667;28;66773;-37
2023/09/27 06:16:48;;;;;;;;;;;;;;;30.64;68.68;100611.44;5017303;28;70505;-37
2023/09/27 06:19:18;;;;;;;;;;;;;;;30.63;69.04;100609.78;5020680;28;66184;-37
2023/09/27 06:21:48;;;;;;;;;;;;;;;30.64;69.16;100597.06;5020437;28;70310;-36
2023/09/27 06:24:18;;;;;;;;;;;;;;;30.62;68.94;100597.31;5022011;28;66880;-38
2023/09/27 06:26:48;;;;;;;;;;;;;;;30.62;68.67;100586.50;5020182;28;69808;-36
2023/09/27 06:29:19;;;;;;;;;;;;;;;30.61;68.87;100584.81;5027969;28;65843;-36
2023/09/27 06:31:50;;;;;;;;;;;;;;;30.61;69.41;100592.94;5019133;28;70701;-39
2023/09/27 06:34:20;;;;;;;;;;;;;;;30.61;69.14;100595.66;5018652;28;65882;-36
2023/09/27 06:36:51;;;;;;;;;;;;;;;30.60;69.28;100591.28;5022118;28;70669;-37
2023/09/27 06:39:23;;;;;;;;;;;;;;;30.60;69.38;100588.59;5019386;28;66965;-38
2023/09/27 06:41:55;;;;;;;;;;;;;;;30.59;69.04;100581.53;5015101;28;70464;-36
2023/09/27 06:44:25;;;;;;;;;;;;;;;30.57;69.41;100583.63;5016976;28;66304;-38
2023/09/27 06:46:54;;;;;;;;;;;;;;;30.59;69.55;100586.94;5026675;28;70442;-36
2023/09/27 06:49:24;;;;;;;;;;;;;;;30.58;69.43;100579.84;5016615;28;66204;-37
2023/09/27 06:51:54;;;;;;;;;;;;;;;30.58;69.47;100579.03;5018483;28;70942;-36
2023/09/27 06:54:25;;;;;;;;;;;;;;;30.58;69.18;100573.63;5027667;28;66438;-37
2023/09/27 06:56:55;;;;;;;;;;;;;;;30.58;69.61;100573.63;5015663;28;69514;-36
2023/09/27 06:59:32;;;;;;;;;;;;;;;30.58;69.80;100574.44;5016075;28;66853;-37
2023/09/27 07:02:13;;;;;;;;;;;;;;;30.57;69.96;100567.38;5014617;28;71535;-41
2023/09/27 07:05:01;;;;;;;;;;;;;;;30.58;69.73;100569.03;5023034;28;66708;-37
2023/09/27 07:07:41;;;;;;;;;;;;;;;30.58;69.33;100570.91;5008373;28;71039;-36
2023/09/27 07:10:14;;;;;;;;;;;;;;;30.58;69.66;100569.03;5017004;28;67051;-36
2023/09/27 07:12:44;;;;;;;;;;;;;;;30.59;69.64;100562.59;5017071;28;70066;-36
2023/09/27 07:15:23;;;;;;;;;;;;;;;30.59;70.00;100554.47;5021928;28;66285;-37
2023/09/27 07:17:56;;;;;;;;;;;;;;;30.60;69.67;100555.28;5012740;28;67962;-37
2023/09/27 07:20:33;;;;;;;;;;;;;;;30.61;69.76;100546.09;5015191;28;66665;-36
2023/09/27 07:23:07;;;;;;;;;;;;;;;30.61;69.60;100551.50;5024021;28;69354;-36
2023/09/27 07:25:37;;;;;;;;;;;;;;;30.62;69.79;100543.19;5015618;28;66739;-37
2023/09/27 07:28:07;;;;;;;;;;;;;;;30.63;69.69;100538.59;5021064;28;70424;-37
2023/09/27 07:30:52;;;;;;;;;;;;;;;30.63;70.14;100539.41;5015798;28;66866;-37
2023/09/27 07:33:23;;;;;;;;;;;;;;;30.65;69.88;100521.06;5017841;28;69459;-36
2023/09/27 07:35:53;;;;;;;;;;;;;;;30.66;69.78;100522.72;5024366;28;66541;-37
2023/09/27 07:38:22;;;;;;;;;;;;;;;30.67;70.19;100528.94;5023911;28;69863;-37
2023/09/27 07:40:52;;;;;;;;;;;;;;;30.67;69.83;100529.78;5014711;28;65556;-36
2023/09/27 07:43:23;;;;;;;;;;;;;;;30.68;69.78;100531.44;5021610;28;70299;-36
2023/09/27 07:45:54;;;;;;;;;;;;;;;30.69;69.94;100527.66;5013099;28;67284;-37
2023/09/27 07:48:25;;;;;;;;;;;;;;;30.68;69.97;100526.03;5018583;28;70553;-37
2023/09/27 07:50:56;;;;;;;;;;;;;;;30.70;70.11;100529.34;5006045;28;65427;-36
2023/09/27 07:53:25;;;;;;;;;;;;;;;30.71;69.85;100528.28;5024933;28;70343;-36
2023/09/27 07:55:56;;;;;;;;;;;;;;;30.72;70.33;100532.63;5023382;28;66780;-36
2023/09/27 07:58:26;;;;;;;;;;;;;;;30.73;69.93;100528.88;5019445;28;70594;-35
2023/09/27 08:00:56;;;;;;;;;;;;;;;30.75;70.40;100530.53;5020144;28;65908;-37
2023/09/27 08:03:27;;;;;;;;;;;;;;;30.76;70.24;100529.44;5019547;28;70572;-36
2023/09/27 08:05:57;;;;;;;;;;;;;;;30.76;70.20;100532.16;5020396;28;65396;-36
2023/09/27 08:08:27;;;;;;;;;;;;;;;30.77;70.22;100523.81;5016088;28;70246;-35
2023/09/27 08:10:57;;;;;;;;;;;;;;;30.79;70.07;100526.31;5020509;28;67056;-36
2023/09/27 08:13:30;;;;;;;;;;;;;;;30.79;69.96;100526.31;5018526;28;69870;-35
2023/09/27 08:15:59;;;;;;;;;;;;;;;30.80;70.21;100533.41;5018731;28;65823;-36
2023/09/27 08:18:30;;;;;;;;;;;;;;;30.81;70.23;100529.63;5014660;28;70605;-36
2023/09/27 08:21:00;;;;;;;;;;;;;;;30.82;70.40;100534.00;5020207;28;66783;-36
2023/09/27 08:23:30;;;;;;;;;;;;;;;30.82;70.32;100540.25;5016192;28;70698;-36
2023/09/27 08:26:01;;;;;;;;;;;;;;;30.84;70.02;100535.44;5020538;28;66006;-35
2023/09/27 08:28:31;;;;;;;;;;;;;;;30.86;70.02;100543.31;5024488;28;70871;-36
2023/09/27 08:31:04;;;;;;;;;;;;;;;30.86;70.04;100540.59;5020135;28;68103;-36
2023/09/27 08:33:34;;;;;;;;;;;;;;;30.86;70.33;100538.72;5019161;28;70665;-37
2023/09/27 08:36:08;;;;;;;;;;;;;;;30.70;70.16;100513.09;5014716;28;66674;-36
2023/09/27 08:38:38;;;;;;;;;;;;;;;30.88;70.16;100536.63;5027556;28;69983;-36
2023/09/27 08:41:28;;;;;;;;;;;;;;;30.88;70.06;100536.63;5025372;28;66548;-36
2023/09/27 08:44:02;;;;;;;;;;;;;;;30.90;70.00;100528.28;5021806;28;69902;-36
2023/09/27 08:46:41;;;;;;;;;;;;;;;30.90;70.32;100539.13;5021278;28;65786;-36
2023/09/27 08:49:12;;;;;;;;;;;;;;;30.90;70.09;100544.53;5016997;28;70705;-36
2023/09/27 08:51:43;;;;;;;;;;;;;;;30.89;69.83;100546.38;5000415;28;66321;-37
2023/09/27 08:54:17;;;;;;;;;;;;;;;30.91;69.77;100551.59;5003076;28;69640;-36
2023/09/27 08:56:59;;;;;;;;;;;;;;;30.92;69.87;100553.22;5019212;28;65485;-35
2023/09/27 08:59:36;;;;;;;;;;;;;;;30.92;70.03;100555.94;5015554;28;68333;-37
2023/09/27 09:02:18;;;;;;;;;;;;;;;30.92;69.67;100558.66;5011031;28;65706;-37
2023/09/27 09:04:59;;;;;;;;;;;;;;;30.93;70.02;100560.31;5012918;28;70377;-35
2023/09/27 09:07:29;;;;;;;;;;;;;;;30.92;69.94;100561.34;5020374;28;66634;-37
2023/09/27 09:09:59;;;;;;;;;;;;;;;30.92;69.88;100559.50;5015235;28;69736;-36
2023/09/27 09:12:29;;;;;;;;;;;;;;;30.93;69.88;100557.63;5018563;28;66693;-36
2023/09/27 09:15:03;;;;;;;;;;;;;;;30.94;69.92;100564.66;5012313;28;69161;-37
2023/09/27 09:17:34;;;;;;;;;;;;;;;30.93;69.71;100569.28;5018742;28;66241;-36
2023/09/27 09:20:27;;;;;;;;;;;;;;;30.93;70.08;100571.16;5021472;28;70531;-37
2023/09/27 09:23:26;;;;;;;;;;;;;;;30.78;72.27;100560.66;4991034;28;65109;-38
2023/09/27 09:25:57;;;;;;;;;;;;;;;30.76;73.38;100567.34;5007012;28;68901;-38
2023/09/27 09:28:27;;;;;;;;;;;;;;;30.75;73.50;100576.53;4995413;28;66105;-39
2023/09/27 09:30:57;;;;;;;;;;;;;;;30.64;74.40;100568.13;5011736;28;70494;-37
2023/09/27 09:33:46;;;;;;;;;;;;;;;30.34;75.68;100537.44;5023508;28;66615;-38
2023/09/27 09:36:29;;;;;;;;;;;;;;;30.55;75.28;100569.47;5015090;28;69299;-39
2023/09/27 09:39:05;;;;;;;;;;;;;;;30.54;75.37;100575.97;5019671;28;66666;-38
2023/09/27 09:41:45;;;;;;;;;;;;;;;30.59;74.87;100581.53;5012938;28;70268;-38
2023/09/27 09:44:22;;;;;;;;;;;;;;;30.57;75.20;100580.91;5018841;28;66118;-38
2023/09/27 09:46:53;;;;;;;;;;;;;;;30.59;75.38;100583.38;5014165;28;70109;-37
2023/09/27 09:49:22;;;;;;;;;;;;;;;30.59;75.39;100586.94;5006935;28;67065;-37
2023/09/27 09:51:55;;;;;;;;;;;;;;;30.59;75.64;100595.06;5013958;28;70349;-38
2023/09/27 09:54:41;;;;;;;;;;;;;;;30.60;75.95;100599.41;5008648;28;66480;-38
2023/09/27 09:57:11;;;;;;;;;;;;;;;30.61;75.47;100601.06;5005517;28;70087;-37
2023/09/27 10:00:17;;;;;;;;;;;;;;;30.60;75.81;100604.84;5009957;28;66979;-37
2023/09/27 10:02:51;;;;;;;;;;;;;;;30.59;75.84;100605.91;5005994;28;70304;-39
2023/09/27 10:05:22;;;;;;;;;;;;;;;30.56;75.89;100619.84;5009818;28;65773;-37
2023/09/27 10:07:52;;;;;;;;;;;;;;;30.56;75.63;100617.16;5009814;28;70692;-37
2023/09/27 10:10:22;;;;;;;;;;;;;;;30.59;76.07;100614.00;5007503;28;65633;-37
2023/09/27 10:12:53;;;;;;;;;;;;;;;30.59;76.13;100619.44;5006368;28;70150;-37
2023/09/27 10:15:24;;;;;;;;;;;;;;;30.58;76.46;100623.16;5006771;28;66357;-39
2023/09/27 10:18:13;;;;;;;;;;;;;;;30.59;76.83;100634.81;5007181;28;70560;-38
2023/09/27 10:21:04;;;;;;;;;;;;;;;30.61;76.03;100627.31;5008817;28;66540;-38
2023/09/27 10:23:58;;;;;;;;;;;;;;;30.60;76.25;100637.31;5010614;28;72087;-38
2023/09/27 10:26:28;;;;;;;;;;;;;;;30.55;76.68;100647.16;5002753;28;66719;-37
2023/09/27 10:29:04;;;;;;;;;;;;;;;30.50;77.01;100653.22;5010320;28;69461;-37
2023/09/27 10:31:41;;;;;;;;;;;;;;;30.53;76.86;100651.97;5006361;28;66184;-37
2023/09/27 10:34:26;;;;;;;;;;;;;;;30.53;76.67;100650.06;5013844;28;70422;-38
2023/09/27 10:37:02;;;;;;;;;;;;;;;30.51;77.31;100654.91;5012779;28;66828;-38
2023/09/27 10:40:05;;;;;;;;;;;;;;;30.55;76.88;100661.53;5021792;28;69465;-42
2023/09/27 10:42:42;;;;;;;;;;;;;;;30.50;77.42;100659.47;5028908;28;66772;-38
2023/09/27 10:45:12;;;;;;;;;;;;;;;30.50;77.72;100658.66;5019919;28;70440;-38
2023/09/27 10:47:42;;;;;;;;;;;;;;;30.50;78.05;100664.06;5023938;28;66625;-38
2023/09/27 10:50:13;;;;;;;;;;;;;;;30.49;77.97;100674.06;5020952;28;71482;-37
2023/09/27 10:52:43;;;;;;;;;;;;;;;30.48;78.40;100677.84;5014441;28;67026;-39
2023/09/27 10:55:16;;;;;;;;;;;;;;;30.51;78.77;100681.97;5021665;28;69887;-36
2023/09/27 10:57:49;;;;;;;;;;;;;;;30.54;79.48;100670.69;5033234;28;65992;-39
2023/09/27 11:00:21;;;;;;;;;;;;;;;30.51;79.95;100681.97;5020580;28;69781;-39
2023/09/27 11:02:51;;;;;;;;;;;;;;;30.60;78.84;100674.41;5023989;28;65703;-37
2023/09/27 11:05:25;;;;;;;;;;;;;;;30.65;77.97;100675.38;4997532;28;70798;-37
2023/09/27 11:07:56;;;;;;;;;;;;;;;30.70;77.61;100675.53;5022402;28;65779;-37
2023/09/27 11:10:33;;;;;;;;;;;;;;;30.74;77.23;100665.09;5025552;28;70089;-37
2023/09/27 11:13:06;;;;;;;;;;;;;;;30.76;76.67;100668.41;5021014;28;66841;-38
2023/09/27 11:15:37;;;;;;;;;;;;;;;30.78;76.72;100671.69;5028538;28;70480;-38
2023/09/27 11:18:07;;;;;;;;;;;;;;;30.81;76.19;100687.50;5019951;28;65000;-38
2023/09/27 11:21:01;;;;;;;;;;;;;;;30.83;76.01;100684.59;5016817;28;69682;-37
2023/09/27 11:23:59;;;;;;;;;;;;;;;30.82;76.14;100683.78;5023671;28;66226;-37
2023/09/27 11:26:59;;;;;;;;;;;;;;;30.56;75.80;100646.91;5020055;28;69144;-38
2023/09/27 11:29:25;;;;;;;;;;;;;;;30.85;75.66;100698.75;5019602;28;67037;-37
2023/09/27 11:31:58;;;;;;;;;;;;;;;30.85;75.45;100698.75;5011227;28;70711;-37
2023/09/27 11:34:28;;;;;;;;;;;;;;;30.86;75.76;100705.81;5012152;28;66668;-39
2023/09/27 11:37:00;;;;;;;;;;;;;;;30.86;75.51;100717.47;5012787;28;69421;-37
2023/09/27 11:39:46;;;;;;;;;;;;;;;30.87;75.44;100721.00;5031548;28;66133;-38
2023/09/27 11:42:23;;;;;;;;;;;;;;;30.85;75.30;100717.72;5022567;28;70790;-38
2023/09/27 11:45:04;;;;;;;;;;;;;;;30.85;75.25;100728.53;5018086;28;66750;-37
2023/09/27 11:47:50;;;;;;;;;;;;;;;30.85;75.31;100733.97;5016705;28;70135;-37
2023/09/27 11:50:22;;;;;;;;;;;;;;;30.85;75.11;100742.09;5016500;28;65669;-37
2023/09/27 11:52:52;;;;;;;;;;;;;;;30.84;74.95;100746.69;5005908;28;69169;-38
2023/09/27 11:55:22;;;;;;;;;;;;;;;30.84;74.99;100756.66;5018275;28;66579;-36
2023/09/27 11:57:56;;;;;;;;;;;;;;;30.85;75.34;100752.91;5012461;28;69834;-38
2023/09/27 12:00:27;;;;;;;;;;;;;;;30.83;75.37;100765.84;5013355;28;66457;-37
2023/09/27 12:02:57;;;;;;;;;;;;;;;30.82;75.25;100770.44;5018717;28;69618;-36
2023/09/27 12:05:28;;;;;;;;;;;;;;;30.82;75.06;100781.28;5017105;28;66309;-37
2023/09/27 12:07:59;;;;;;;;;;;;;;;30.83;75.66;100787.50;5021771;28;70086;-37
2023/09/27 12:10:28;;;;;;;;;;;;;;;30.81;75.07;100787.72;5013107;28;66450;-37
2023/09/27 12:12:58;;;;;;;;;;;;;;;30.81;75.14;100795.00;5024868;28;69552;-38
2023/09/27 12:15:29;;;;;;;;;;;;;;;30.80;75.09;100798.78;5017881;28;66492;-38
2023/09/27 12:17:59;;;;;;;;;;;;;;;30.80;75.38;100798.78;5022395;28;70743;-37
2023/09/27 12:20:30;;;;;;;;;;;;;;;30.79;75.45;100800.63;5026003;28;66767;-37
2023/09/27 12:23:03;;;;;;;;;;;;;;;30.79;75.73;100806.06;5012493;28;69143;-37
2023/09/27 12:25:33;;;;;;;;;;;;;;;30.79;75.05;100810.66;5020800;28;66320;-37
2023/09/27 12:28:04;;;;;;;;;;;;;;;30.78;75.55;100807.09;5022068;28;69942;-37
2023/09/27 12:30:34;;;;;;;;;;;;;;;30.77;75.71;100810.84;5021215;28;66277;-37
2023/09/27 12:33:04;;;;;;;;;;;;;;;30.77;75.31;100810.84;5011904;28;69204;-38
2023/09/27 12:35:34;;;;;;;;;;;;;;;30.77;75.37;100820.88;5020783;28;66561;-38
2023/09/27 12:38:06;;;;;;;;;;;;;;;30.76;75.60;100821.91;5009630;28;70281;-37
2023/09/27 12:40:37;;;;;;;;;;;;;;;30.75;75.45;100834.59;5026540;28;66037;-38
2023/09/27 12:43:06;;;;;;;;;;;;;;;30.75;75.44;100829.19;5018801;28;69308;-38
2023/09/27 12:45:39;;;;;;;;;;;;;;;30.74;75.37;100843.78;5024119;28;65537;-37
2023/09/27 12:48:09;;;;;;;;;;;;;;;30.73;75.15;100848.38;5017410;28;69956;-39
2023/09/27 12:50:40;;;;;;;;;;;;;;;30.73;75.29;100853.81;5017858;28;66865;-38
2023/09/27 12:53:11;;;;;;;;;;;;;;;30.71;75.42;100858.59;5016791;28;70023;-36
2023/09/27 12:55:42;;;;;;;;;;;;;;;30.70;75.51;100870.50;5012750;28;66184;-35
2023/09/27 12:58:13;;;;;;;;;;;;;;;30.69;75.44;100868.81;5003785;28;70368;-39
2023/09/27 13:00:43;;;;;;;;;;;;;;;30.68;75.56;100878.00;5024814;28;65140;-37